Map

Track Data

SID SEASON NUMBER BASIN SUBBASIN NAME ISO_TIME NATURE LAT LON WMO_WIND WMO_PRES WMO_AGENCY TRACK_TYPE DIST2LAND LANDFALL IFLAG USA_AGENCY USA_ATCF_ID USA_LAT USA_LON USA_RECORD USA_STATUS USA_WIND USA_PRES USA_SSHS USA_R34_NE USA_R34_SE USA_R34_SW USA_R34_NW USA_R50_NE USA_R50_SE USA_R50_SW USA_R50_NW USA_R64_NE USA_R64_SE USA_R64_SW USA_R64_NW USA_POCI USA_ROCI USA_RMW USA_EYE TOKYO_LAT TOKYO_LON TOKYO_GRADE TOKYO_WIND TOKYO_PRES TOKYO_R50_DIR TOKYO_R50_LONG TOKYO_R50_SHORT TOKYO_R30_DIR TOKYO_R30_LONG TOKYO_R30_SHORT TOKYO_LAND CMA_LAT CMA_LON CMA_CAT CMA_WIND CMA_PRES HKO_LAT HKO_LON HKO_CAT HKO_WIND HKO_PRES NEWDELHI_LAT NEWDELHI_LON NEWDELHI_GRADE NEWDELHI_WIND NEWDELHI_PRES NEWDELHI_CI NEWDELHI_DP NEWDELHI_POCI REUNION_LAT REUNION_LON REUNION_TYPE REUNION_WIND REUNION_PRES REUNION_TNUM REUNION_CI REUNION_RMW REUNION_R34_NE REUNION_R34_SE REUNION_R34_SW REUNION_R34_NW REUNION_R50_NE REUNION_R50_SE REUNION_R50_SW REUNION_R50_NW REUNION_R64_NE REUNION_R64_SE REUNION_R64_SW REUNION_R64_NW BOM_LAT BOM_LON BOM_TYPE BOM_WIND BOM_PRES BOM_TNUM BOM_CI BOM_RMW BOM_R34_NE BOM_R34_SE BOM_R34_SW BOM_R34_NW BOM_R50_NE BOM_R50_SE BOM_R50_SW BOM_R50_NW BOM_R64_NE BOM_R64_SE BOM_R64_SW BOM_R64_NW BOM_ROCI BOM_POCI BOM_EYE BOM_POS_METHOD BOM_PRES_METHOD NADI_LAT NADI_LON NADI_CAT NADI_WIND NADI_PRES WELLINGTON_LAT WELLINGTON_LON WELLINGTON_WIND WELLINGTON_PRES DS824_LAT DS824_LON DS824_STAGE DS824_WIND DS824_PRES TD9636_LAT TD9636_LON TD9636_STAGE TD9636_WIND TD9636_PRES TD9635_LAT TD9635_LON TD9635_WIND TD9635_PRES TD9635_ROCI NEUMANN_LAT NEUMANN_LON NEUMANN_CLASS NEUMANN_WIND NEUMANN_PRES MLC_LAT MLC_LON MLC_CLASS MLC_WIND MLC_PRES USA_GUST BOM_GUST BOM_GUST_PER REUNION_GUST REUNION_GUST_PER USA_SEAHGT USA_SEARAD_NE USA_SEARAD_SE USA_SEARAD_SW USA_SEARAD_NW STORM_SPEED STORM_DIR
1889302N13130 1889 37 WP MM NOT_NAMED 1889-10-28 16:00:00 NR 12.8000 130.000 main 493 314 __________O___ -1 12.8000 130.000 7 49 275
1889302N13130 1889 37 WP MM NOT_NAMED 1889-10-28 18:00:00 NR 12.9289 128.330 main 314 101 __________P___ -1 12.9289 128.330 7 48 274
1889302N13130 1889 37 WP MM NOT_NAMED 1889-10-28 21:00:00 NR 13.1061 125.920 main 101 0 __________P___ -1 13.1061 125.920 7 45 274
1889302N13130 1889 37 WP MM NOT_NAMED 1889-10-29 00:00:00 NR 13.2720 123.773 main 0 0 __________P___ -1 13.2720 123.773 7 38 275
1889302N13130 1889 37 WP MM NOT_NAMED 1889-10-29 03:00:00 NR 13.4404 122.052 main 31 31 __________P___ -1 13.4404 122.052 7 32 276
1889302N13130 1889 37 WP MM NOT_NAMED 1889-10-29 04:00:00 NR 13.5000 121.600 main 24 0 __________O___ -1 13.5000 121.600 3 23 279
1889302N13130 1889 37 WP MM NOT_NAMED 1889-10-29 06:00:00 NR 13.6265 120.897 main 10 10 __________P___ -1 13.6265 120.897 3 16 284
1889302N13130 1889 37 WP MM NOT_NAMED 1889-10-29 09:00:00 NR 13.8247 120.245 main 43 43 __________P___ -1 13.8247 120.245 3 10 292
1889302N13130 1889 37 WP MM NOT_NAMED 1889-10-29 12:00:00 NR 14.0122 119.905 main 75 75 __________P___ -1 14.0122 119.905 3 6 302
1889302N13130 1889 37 WP MM NOT_NAMED 1889-10-29 15:00:00 NR 14.1627 119.682 main 77 77 __________P___ -1 14.1627 119.682 3 5 302
1889302N13130 1889 37 WP MM NOT_NAMED 1889-10-29 16:00:00 NR 14.2000 119.600 main 85 85 __________O___ -1 14.2000 119.600 4 8 282
1889302N13130 1889 37 WP MM NOT_NAMED 1889-10-29 18:00:00 NR 14.2421 119.304 main 109 109 __________P___ -1 14.2421 119.304 4 8 275
1889302N13130 1889 37 WP MM NOT_NAMED 1889-10-29 21:00:00 NR 14.2614 118.873 main 140 150 __________P___ -1 14.2614 118.873 4 8 270
1889302N13130 1889 37 WP MM NOT_NAMED 1889-10-30 00:00:00 NR 14.2449 118.436 main 195 195 __________P___ -1 14.2449 118.436 4 9 267
1889302N13130 1889 37 WP MM NOT_NAMED 1889-10-30 03:00:00 NR 14.2116 117.968 main 235 246 __________P___ -1 14.2116 117.968 4 9 266
1889302N13130 1889 37 WP MM NOT_NAMED 1889-10-30 04:00:00 NR 14.2000 117.800 main 256 256 __________O___ -1 14.2000 117.800 4 11 267
1889302N13130 1889 37 WP MM NOT_NAMED 1889-10-30 06:00:00 NR 14.1840 117.424 main 298 298 __________P___ -1 14.1840 117.424 4 11 267
1889302N13130 1889 37 WP MM NOT_NAMED 1889-10-30 09:00:00 NR 14.1535 116.821 main 359 359 __________P___ -1 14.1535 116.821 4 12 267
1889302N13130 1889 37 WP MM NOT_NAMED 1889-10-30 12:00:00 NR 14.1233 116.201 main 423 423 __________P___ -1 14.1233 116.201 4 12 268
1889302N13130 1889 37 WP MM NOT_NAMED 1889-10-30 15:00:00 NR 14.1029 115.594 main 484 484 __________P___ -1 14.1029 115.594 4 12 268
1889302N13130 1889 37 WP MM NOT_NAMED 1889-10-30 16:00:00 NR 14.1000 115.400 main 505 505 __________O___ -1 14.1000 115.400 4 10 270
1889302N13130 1889 37 WP MM NOT_NAMED 1889-10-30 18:00:00 NR 14.0994 115.054 main 536 546 __________P___ -1 14.0994 115.054 4 10 271
1889302N13130 1889 37 WP MM NOT_NAMED 1889-10-30 21:00:00 NR 14.1113 114.561 main 567 515 __________P___ -1 14.1113 114.561 4 10 272
1889302N13130 1889 37 WP MM NOT_NAMED 1889-10-31 00:00:00 NR 14.1389 114.076 main 515 465 __________P___ -1 14.1389 114.076 4 10 274
1889302N13130 1889 37 WP MM NOT_NAMED 1889-10-31 03:00:00 NR 14.1822 113.575 main 465 443 __________P___ -1 14.1822 113.575 4 10 275
1889302N13130 1889 37 WP MM NOT_NAMED 1889-10-31 04:00:00 NR 14.2000 113.400 main 443 400 __________O___ -1 14.2000 113.400 4 11 276
1889302N13130 1889 37 WP MM NOT_NAMED 1889-10-31 06:00:00 NR 14.2385 113.020 main 400 337 __________P___ -1 14.2385 113.020 4 11 277
1889302N13130 1889 37 WP MM NOT_NAMED 1889-10-31 09:00:00 NR 14.3090 112.425 main 337 275 __________P___ -1 14.3090 112.425 4 12 277
1889302N13130 1889 37 WP MM NOT_NAMED 1889-10-31 12:00:00 NR 14.3891 111.814 main 275 215 __________P___ -1 14.3891 111.814 4 12 278
1889302N13130 1889 37 WP MM NOT_NAMED 1889-10-31 15:00:00 NR 14.4725 111.202 main 215 195 __________P___ -1 14.4725 111.202 4 12 278
1889302N13130 1889 37 WP MM NOT_NAMED 1889-10-31 16:00:00 NR 14.5000 111.000 main 195 155 __________O___ -1 14.5000 111.000 4 12 278
1889302N13130 1889 37 WP MM NOT_NAMED 1889-10-31 18:00:00 NR 14.5536 110.603 main 160 96 __________P___ -1 14.5536 110.603 4 11 278
1889302N13130 1889 37 WP MM NOT_NAMED 1889-10-31 21:00:00 NR 14.6308 110.021 main 96 43 __________P___ -1 14.6308 110.021 4 11 278
1889302N13130 1889 37 WP MM NOT_NAMED 1889-11-01 00:00:00 NR 14.7048 109.451 main 43 0 __________P___ -1 14.7048 109.451 4 11 278
1889302N13130 1889 37 WP MM NOT_NAMED 1889-11-01 03:00:00 NR 14.7765 108.887 main 0 0 __________P___ -1 14.7765 108.887 4 11 277
1889302N13130 1889 37 WP MM NOT_NAMED 1889-11-01 04:00:00 NR 14.8000 108.700 main 0 __________O___ -1 14.8000 108.700 7 11 277

Digital Typhoon Data and Search

About IBTrACS Database

This database is a web-friendly format of International Best Track Archive for Climate Stewardship (IBTrACS), a global best track data archive curated by NOAA dating back to 1842.

Updated: 2021-12-06